sensor_id;sensor_type;location;lat;lon;timestamp;temperature;humidity
1778;DHT22;886;50.082;8.222;2022-08-19T00:01:56;23.20;91.30
1778;DHT22;886;50.082;8.222;2022-08-19T00:04:34;23.20;91.30
1778;DHT22;886;50.082;8.222;2022-08-19T00:07:04;23.20;91.40
1778;DHT22;886;50.082;8.222;2022-08-19T00:09:33;23.20;91.40
1778;DHT22;886;50.082;8.222;2022-08-19T00:12:01;23.20;91.40
1778;DHT22;886;50.082;8.222;2022-08-19T00:14:30;23.10;91.60
1778;DHT22;886;50.082;8.222;2022-08-19T00:16:58;23.10;91.80
1778;DHT22;886;50.082;8.222;2022-08-19T00:19:26;23.00;91.90
1778;DHT22;886;50.082;8.222;2022-08-19T00:21:56;23.00;91.90
1778;DHT22;886;50.082;8.222;2022-08-19T00:24:23;23.00;91.90
1778;DHT22;886;50.082;8.222;2022-08-19T00:26:52;23.00;91.80
1778;DHT22;886;50.082;8.222;2022-08-19T00:29:21;23.00;91.80
1778;DHT22;886;50.082;8.222;2022-08-19T00:31:49;23.10;91.70
1778;DHT22;886;50.082;8.222;2022-08-19T00:34:23;23.10;91.60
1778;DHT22;886;50.082;8.222;2022-08-19T00:36:50;23.10;91.60
1778;DHT22;886;50.082;8.222;2022-08-19T00:39:18;23.10;91.70
1778;DHT22;886;50.082;8.222;2022-08-19T00:41:46;23.10;91.80
1778;DHT22;886;50.082;8.222;2022-08-19T00:44:20;23.00;91.70
1778;DHT22;886;50.082;8.222;2022-08-19T00:46:54;23.00;91.70
1778;DHT22;886;50.082;8.222;2022-08-19T00:49:27;23.00;91.70
1778;DHT22;886;50.082;8.222;2022-08-19T00:52:00;23.00;91.70
1778;DHT22;886;50.082;8.222;2022-08-19T00:54:33;23.00;91.80
1778;DHT22;886;50.082;8.222;2022-08-19T00:57:06;23.00;91.80
1778;DHT22;886;50.082;8.222;2022-08-19T00:59:39;22.90;91.70
1778;DHT22;886;50.082;8.222;2022-08-19T01:02:27;22.90;91.80
1778;DHT22;886;50.082;8.222;2022-08-19T01:05:00;22.90;91.90
1778;DHT22;886;50.082;8.222;2022-08-19T01:07:28;22.90;91.90
1778;DHT22;886;50.082;8.222;2022-08-19T01:10:06;22.80;91.90
1778;DHT22;886;50.082;8.222;2022-08-19T01:12:35;22.80;92.00
1778;DHT22;886;50.082;8.222;2022-08-19T01:15:06;22.80;91.90
1778;DHT22;886;50.082;8.222;2022-08-19T01:17:37;22.80;91.90
1778;DHT22;886;50.082;8.222;2022-08-19T01:20:07;22.80;92.00
1778;DHT22;886;50.082;8.222;2022-08-19T01:22:43;22.80;92.00
1778;DHT22;886;50.082;8.222;2022-08-19T01:25:13;22.80;92.30
1778;DHT22;886;50.082;8.222;2022-08-19T01:27:43;22.70;92.10
1778;DHT22;886;50.082;8.222;2022-08-19T01:30:12;22.80;92.10
1778;DHT22;886;50.082;8.222;2022-08-19T01:32:40;22.70;92.10
1778;DHT22;886;50.082;8.222;2022-08-19T01:35:09;22.70;92.10
1778;DHT22;886;50.082;8.222;2022-08-19T01:37:50;22.70;92.10
1778;DHT22;886;50.082;8.222;2022-08-19T01:40:21;22.70;92.10
1778;DHT22;886;50.082;8.222;2022-08-19T01:42:50;22.70;92.20
1778;DHT22;886;50.082;8.222;2022-08-19T01:45:19;22.70;92.20
1778;DHT22;886;50.082;8.222;2022-08-19T01:47:48;22.70;92.20
1778;DHT22;886;50.082;8.222;2022-08-19T01:50:29;22.70;92.20
1778;DHT22;886;50.082;8.222;2022-08-19T01:52:59;22.70;92.30
1778;DHT22;886;50.082;8.222;2022-08-19T01:55:34;22.70;92.30
1778;DHT22;886;50.082;8.222;2022-08-19T01:58:10;22.70;92.20
1778;DHT22;886;50.082;8.222;2022-08-19T02:00:39;22.60;92.30
1778;DHT22;886;50.082;8.222;2022-08-19T02:03:10;22.60;92.40
1778;DHT22;886;50.082;8.222;2022-08-19T02:05:39;22.60;92.30
1778;DHT22;886;50.082;8.222;2022-08-19T02:08:08;22.70;92.30
1778;DHT22;886;50.082;8.222;2022-08-19T02:10:41;22.70;92.20
1778;DHT22;886;50.082;8.222;2022-08-19T02:13:09;22.70;92.20
1778;DHT22;886;50.082;8.222;2022-08-19T02:15:37;22.60;92.20
1778;DHT22;886;50.082;8.222;2022-08-19T02:18:05;22.60;92.20
1778;DHT22;886;50.082;8.222;2022-08-19T02:20:35;22.60;92.20
1778;DHT22;886;50.082;8.222;2022-08-19T02:23:06;22.60;92.30
1778;DHT22;886;50.082;8.222;2022-08-19T02:25:42;22.60;92.30
1778;DHT22;886;50.082;8.222;2022-08-19T02:28:10;22.50;92.60
1778;DHT22;886;50.082;8.222;2022-08-19T02:30:45;22.40;92.60
1778;DHT22;886;50.082;8.222;2022-08-19T02:33:13;22.40;92.70
1778;DHT22;886;50.082;8.222;2022-08-19T02:35:42;22.40;92.80
1778;DHT22;886;50.082;8.222;2022-08-19T02:38:11;22.40;92.90
1778;DHT22;886;50.082;8.222;2022-08-19T02:40:58;22.30;92.80
1778;DHT22;886;50.082;8.222;2022-08-19T02:43:29;22.30;92.90
1778;DHT22;886;50.082;8.222;2022-08-19T02:46:10;22.30;92.90
1778;DHT22;886;50.082;8.222;2022-08-19T02:48:38;22.20;93.00
1778;DHT22;886;50.082;8.222;2022-08-19T02:51:06;22.20;93.10
1778;DHT22;886;50.082;8.222;2022-08-19T02:53:34;22.20;93.10
1778;DHT22;886;50.082;8.222;2022-08-19T02:56:06;22.20;93.20
1778;DHT22;886;50.082;8.222;2022-08-19T02:58:33;22.20;93.20
1778;DHT22;886;50.082;8.222;2022-08-19T03:01:00;22.10;93.20
1778;DHT22;886;50.082;8.222;2022-08-19T03:03:30;22.10;93.20
1778;DHT22;886;50.082;8.222;2022-08-19T03:06:09;22.10;93.30
1778;DHT22;886;50.082;8.222;2022-08-19T03:08:41;22.00;93.50
1778;DHT22;886;50.082;8.222;2022-08-19T03:11:13;22.00;93.70
1778;DHT22;886;50.082;8.222;2022-08-19T03:13:44;21.90;93.70
1778;DHT22;886;50.082;8.222;2022-08-19T03:16:12;21.90;93.80
1778;DHT22;886;50.082;8.222;2022-08-19T03:18:39;21.90;93.90
1778;DHT22;886;50.082;8.222;2022-08-19T03:21:14;21.90;94.00
1778;DHT22;886;50.082;8.222;2022-08-19T03:23:43;21.80;94.00
1778;DHT22;886;50.082;8.222;2022-08-19T03:26:10;21.90;94.00
1778;DHT22;886;50.082;8.222;2022-08-19T03:28:43;21.80;94.00
1778;DHT22;886;50.082;8.222;2022-08-19T03:31:26;21.80;94.10
1778;DHT22;886;50.082;8.222;2022-08-19T03:34:15;21.90;94.20
1778;DHT22;886;50.082;8.222;2022-08-19T03:36:44;21.80;94.20
1778;DHT22;886;50.082;8.222;2022-08-19T03:39:14;21.80;94.30
1778;DHT22;886;50.082;8.222;2022-08-19T03:41:43;21.80;94.30
1778;DHT22;886;50.082;8.222;2022-08-19T03:44:16;21.80;94.20
1778;DHT22;886;50.082;8.222;2022-08-19T03:46:46;21.80;94.20
1778;DHT22;886;50.082;8.222;2022-08-19T03:49:14;21.80;94.30
1778;DHT22;886;50.082;8.222;2022-08-19T03:51:45;21.70;94.30
1778;DHT22;886;50.082;8.222;2022-08-19T03:54:16;21.70;94.30
1778;DHT22;886;50.082;8.222;2022-08-19T03:56:46;21.70;94.40
1778;DHT22;886;50.082;8.222;2022-08-19T03:59:17;21.70;94.40
1778;DHT22;886;50.082;8.222;2022-08-19T04:01:46;21.80;94.30
1778;DHT22;886;50.082;8.222;2022-08-19T04:04:13;21.70;94.40
1778;DHT22;886;50.082;8.222;2022-08-19T04:06:41;21.70;94.50
1778;DHT22;886;50.082;8.222;2022-08-19T04:09:11;21.70;94.50
1778;DHT22;886;50.082;8.222;2022-08-19T04:11:41;21.70;94.50
1778;DHT22;886;50.082;8.222;2022-08-19T04:14:13;21.60;94.70
1778;DHT22;886;50.082;8.222;2022-08-19T04:16:42;21.60;94.90
1778;DHT22;886;50.082;8.222;2022-08-19T04:19:12;21.50;94.90
1778;DHT22;886;50.082;8.222;2022-08-19T04:21:40;21.60;94.80
1778;DHT22;886;50.082;8.222;2022-08-19T04:24:10;21.60;94.70
1778;DHT22;886;50.082;8.222;2022-08-19T04:26:38;21.60;94.70
1778;DHT22;886;50.082;8.222;2022-08-19T04:29:08;21.60;94.60
1778;DHT22;886;50.082;8.222;2022-08-19T04:31:39;21.60;94.70
1778;DHT22;886;50.082;8.222;2022-08-19T04:34:09;21.60;94.70
1778;DHT22;886;50.082;8.222;2022-08-19T04:36:40;21.60;94.80
1778;DHT22;886;50.082;8.222;2022-08-19T04:39:10;21.60;94.90
1778;DHT22;886;50.082;8.222;2022-08-19T04:41:46;21.50;95.20
1778;DHT22;886;50.082;8.222;2022-08-19T04:44:32;21.50;95.00
1778;DHT22;886;50.082;8.222;2022-08-19T04:47:02;21.60;95.00
1778;DHT22;886;50.082;8.222;2022-08-19T04:49:39;21.60;94.90
1778;DHT22;886;50.082;8.222;2022-08-19T04:52:06;21.50;95.00
1778;DHT22;886;50.082;8.222;2022-08-19T04:54:35;21.50;95.00
1778;DHT22;886;50.082;8.222;2022-08-19T04:57:09;21.50;95.00
1778;DHT22;886;50.082;8.222;2022-08-19T04:59:38;21.50;95.00
1778;DHT22;886;50.082;8.222;2022-08-19T05:02:07;21.50;95.00
1778;DHT22;886;50.082;8.222;2022-08-19T05:04:35;21.50;95.10
1778;DHT22;886;50.082;8.222;2022-08-19T05:07:05;21.50;95.20
1778;DHT22;886;50.082;8.222;2022-08-19T05:09:34;21.60;95.10
1778;DHT22;886;50.082;8.222;2022-08-19T05:12:22;21.60;95.20
1778;DHT22;886;50.082;8.222;2022-08-19T05:14:58;21.60;95.20
1778;DHT22;886;50.082;8.222;2022-08-19T05:17:28;21.60;95.20
1778;DHT22;886;50.082;8.222;2022-08-19T05:20:04;21.60;95.20
1778;DHT22;886;50.082;8.222;2022-08-19T05:22:54;21.70;95.20
1778;DHT22;886;50.082;8.222;2022-08-19T05:25:22;21.80;95.10
1778;DHT22;886;50.082;8.222;2022-08-19T05:27:53;21.80;95.00
1778;DHT22;886;50.082;8.222;2022-08-19T05:30:20;21.80;95.00
1778;DHT22;886;50.082;8.222;2022-08-19T05:32:59;21.80;95.00
1778;DHT22;886;50.082;8.222;2022-08-19T05:35:26;21.80;95.10
1778;DHT22;886;50.082;8.222;2022-08-19T05:38:00;21.80;95.00
1778;DHT22;886;50.082;8.222;2022-08-19T05:40:30;21.90;95.10
1778;DHT22;886;50.082;8.222;2022-08-19T05:42:59;21.90;95.00
1778;DHT22;886;50.082;8.222;2022-08-19T05:45:29;21.90;95.10
1778;DHT22;886;50.082;8.222;2022-08-19T05:47:56;22.00;95.10
1778;DHT22;886;50.082;8.222;2022-08-19T05:50:23;22.00;95.10
1778;DHT22;886;50.082;8.222;2022-08-19T05:52:58;22.00;95.10
1778;DHT22;886;50.082;8.222;2022-08-19T05:55:25;22.10;94.90
1778;DHT22;886;50.082;8.222;2022-08-19T05:57:52;22.10;94.90
1778;DHT22;886;50.082;8.222;2022-08-19T06:00:20;22.20;95.00
1778;DHT22;886;50.082;8.222;2022-08-19T06:02:50;22.20;94.80
1778;DHT22;886;50.082;8.222;2022-08-19T06:05:21;22.20;94.80
1778;DHT22;886;50.082;8.222;2022-08-19T06:07:51;22.20;94.80
1778;DHT22;886;50.082;8.222;2022-08-19T06:10:18;22.20;94.80
1778;DHT22;886;50.082;8.222;2022-08-19T06:12:45;22.20;94.80
1778;DHT22;886;50.082;8.222;2022-08-19T06:15:14;22.30;94.60
1778;DHT22;886;50.082;8.222;2022-08-19T06:17:43;22.40;94.60
1778;DHT22;886;50.082;8.222;2022-08-19T06:20:13;22.50;94.60
1778;DHT22;886;50.082;8.222;2022-08-19T06:22:44;22.50;94.50
1778;DHT22;886;50.082;8.222;2022-08-19T06:25:14;22.50;94.50
1778;DHT22;886;50.082;8.222;2022-08-19T06:27:41;22.50;94.50
1778;DHT22;886;50.082;8.222;2022-08-19T06:30:29;22.40;94.70
1778;DHT22;886;50.082;8.222;2022-08-19T06:32:58;22.40;94.70
1778;DHT22;886;50.082;8.222;2022-08-19T06:35:25;22.50;94.80
1778;DHT22;886;50.082;8.222;2022-08-19T06:37:52;22.50;94.80
1778;DHT22;886;50.082;8.222;2022-08-19T06:40:20;22.50;94.70
1778;DHT22;886;50.082;8.222;2022-08-19T06:42:47;22.40;94.70
1778;DHT22;886;50.082;8.222;2022-08-19T06:45:20;22.50;94.80
1778;DHT22;886;50.082;8.222;2022-08-19T06:47:51;22.50;94.60
1778;DHT22;886;50.082;8.222;2022-08-19T06:50:24;22.60;94.60
1778;DHT22;886;50.082;8.222;2022-08-19T06:52:51;22.60;94.60
1778;DHT22;886;50.082;8.222;2022-08-19T06:55:19;22.70;94.70
1778;DHT22;886;50.082;8.222;2022-08-19T06:57:46;22.70;94.70
1778;DHT22;886;50.082;8.222;2022-08-19T07:00:15;22.70;94.30
1778;DHT22;886;50.082;8.222;2022-08-19T07:02:43;22.80;94.30
1778;DHT22;886;50.082;8.222;2022-08-19T07:05:22;22.80;94.20
1778;DHT22;886;50.082;8.222;2022-08-19T07:07:50;22.90;94.20
1778;DHT22;886;50.082;8.222;2022-08-19T07:10:18;23.00;94.20
1778;DHT22;886;50.082;8.222;2022-08-19T07:12:46;23.10;94.00
1778;DHT22;886;50.082;8.222;2022-08-19T07:15:14;23.30;94.00
1778;DHT22;886;50.082;8.222;2022-08-19T07:17:44;23.50;93.50
1778;DHT22;886;50.082;8.222;2022-08-19T07:20:18;23.70;93.00
1778;DHT22;886;50.082;8.222;2022-08-19T07:22:50;23.80;92.90
1778;DHT22;886;50.082;8.222;2022-08-19T07:25:19;23.90;92.90
1778;DHT22;886;50.082;8.222;2022-08-19T07:27:58;23.90;92.70
1778;DHT22;886;50.082;8.222;2022-08-19T07:30:27;23.90;92.40
1778;DHT22;886;50.082;8.222;2022-08-19T07:32:54;23.90;92.40
1778;DHT22;886;50.082;8.222;2022-08-19T07:35:22;23.90;92.30
1778;DHT22;886;50.082;8.222;2022-08-19T07:37:52;24.00;92.20
1778;DHT22;886;50.082;8.222;2022-08-19T07:40:20;24.10;92.10
1778;DHT22;886;50.082;8.222;2022-08-19T07:42:47;24.30;91.80
1778;DHT22;886;50.082;8.222;2022-08-19T07:45:14;24.40;91.60
1778;DHT22;886;50.082;8.222;2022-08-19T07:47:42;24.40;91.50
1778;DHT22;886;50.082;8.222;2022-08-19T07:50:18;24.50;91.40
1778;DHT22;886;50.082;8.222;2022-08-19T07:52:47;24.50;91.30
1778;DHT22;886;50.082;8.222;2022-08-19T07:55:23;24.50;91.20
1778;DHT22;886;50.082;8.222;2022-08-19T07:58:10;24.50;91.20
1778;DHT22;886;50.082;8.222;2022-08-19T08:00:39;24.60;91.00
1778;DHT22;886;50.082;8.222;2022-08-19T08:03:06;24.60;91.00
1778;DHT22;886;50.082;8.222;2022-08-19T08:05:35;24.60;91.00
1778;DHT22;886;50.082;8.222;2022-08-19T08:08:20;24.60;90.80
1778;DHT22;886;50.082;8.222;2022-08-19T08:11:13;24.60;91.00
1778;DHT22;886;50.082;8.222;2022-08-19T08:13:41;24.60;91.00
1778;DHT22;886;50.082;8.222;2022-08-19T08:16:09;24.50;91.00
1778;DHT22;886;50.082;8.222;2022-08-19T08:18:40;24.60;91.10
1778;DHT22;886;50.082;8.222;2022-08-19T08:21:13;24.70;90.90
1778;DHT22;886;50.082;8.222;2022-08-19T08:23:40;24.80;90.90
1778;DHT22;886;50.082;8.222;2022-08-19T08:26:13;24.80;90.50
1778;DHT22;886;50.082;8.222;2022-08-19T08:28:44;24.80;90.90
1778;DHT22;886;50.082;8.222;2022-08-19T08:31:15;24.60;90.60
1778;DHT22;886;50.082;8.222;2022-08-19T08:33:42;24.50;90.90
1778;DHT22;886;50.082;8.222;2022-08-19T08:36:11;24.40;91.00
1778;DHT22;886;50.082;8.222;2022-08-19T08:38:38;24.40;91.20
1778;DHT22;886;50.082;8.222;2022-08-19T08:41:13;24.30;91.00
1778;DHT22;886;50.082;8.222;2022-08-19T08:43:51;24.30;91.20
1778;DHT22;886;50.082;8.222;2022-08-19T08:46:25;24.20;91.00
1778;DHT22;886;50.082;8.222;2022-08-19T08:49:02;24.20;91.20
1778;DHT22;886;50.082;8.222;2022-08-19T08:51:37;24.20;91.00
1778;DHT22;886;50.082;8.222;2022-08-19T08:54:14;24.20;90.80
1778;DHT22;886;50.082;8.222;2022-08-19T08:56:49;24.30;90.60
1778;DHT22;886;50.082;8.222;2022-08-19T08:59:23;24.40;90.40
1778;DHT22;886;50.082;8.222;2022-08-19T09:01:53;24.30;90.20
1778;DHT22;886;50.082;8.222;2022-08-19T09:04:20;24.40;90.20
1778;DHT22;886;50.082;8.222;2022-08-19T09:06:55;24.30;90.20
1778;DHT22;886;50.082;8.222;2022-08-19T09:09:51;24.50;90.20
1778;DHT22;886;50.082;8.222;2022-08-19T09:12:26;24.50;90.00
1778;DHT22;886;50.082;8.222;2022-08-19T09:15:04;24.70;90.20
1778;DHT22;886;50.082;8.222;2022-08-19T09:17:39;24.70;89.50
1778;DHT22;886;50.082;8.222;2022-08-19T09:20:21;24.80;90.20
1778;DHT22;886;50.082;8.222;2022-08-19T09:22:51;24.90;90.10
1778;DHT22;886;50.082;8.222;2022-08-19T09:25:21;24.90;89.70
1778;DHT22;886;50.082;8.222;2022-08-19T09:27:54;24.90;89.50
1778;DHT22;886;50.082;8.222;2022-08-19T09:30:31;25.00;89.20
1778;DHT22;886;50.082;8.222;2022-08-19T09:33:00;25.10;88.60
1778;DHT22;886;50.082;8.222;2022-08-19T09:35:32;25.00;88.20
1778;DHT22;886;50.082;8.222;2022-08-19T09:38:19;25.10;87.90
1778;DHT22;886;50.082;8.222;2022-08-19T09:40:49;25.00;87.70
1778;DHT22;886;50.082;8.222;2022-08-19T09:43:32;25.00;87.90
1778;DHT22;886;50.082;8.222;2022-08-19T09:46:11;25.00;87.90
1778;DHT22;886;50.082;8.222;2022-08-19T09:48:43;24.90;86.20
1778;DHT22;886;50.082;8.222;2022-08-19T09:51:18;25.00;85.40
1778;DHT22;886;50.082;8.222;2022-08-19T09:53:50;25.00;85.00
1778;DHT22;886;50.082;8.222;2022-08-19T09:56:21;25.00;85.00
1778;DHT22;886;50.082;8.222;2022-08-19T09:58:54;25.00;84.80
1778;DHT22;886;50.082;8.222;2022-08-19T10:01:23;25.10;84.40
1778;DHT22;886;50.082;8.222;2022-08-19T10:03:53;25.20;83.70
1778;DHT22;886;50.082;8.222;2022-08-19T10:06:23;25.20;83.50
1778;DHT22;886;50.082;8.222;2022-08-19T10:09:11;25.20;83.30
1778;DHT22;886;50.082;8.222;2022-08-19T10:11:40;25.30;83.50
1778;DHT22;886;50.082;8.222;2022-08-19T10:14:21;25.40;82.90
1778;DHT22;886;50.082;8.222;2022-08-19T10:16:52;25.30;82.80
1778;DHT22;886;50.082;8.222;2022-08-19T10:19:22;25.30;82.80
1778;DHT22;886;50.082;8.222;2022-08-19T10:21:52;25.40;82.90
1778;DHT22;886;50.082;8.222;2022-08-19T10:24:19;25.40;82.80
1778;DHT22;886;50.082;8.222;2022-08-19T10:26:55;25.50;83.00
1778;DHT22;886;50.082;8.222;2022-08-19T10:29:27;25.50;83.10
1778;DHT22;886;50.082;8.222;2022-08-19T10:32:02;25.60;82.20
1778;DHT22;886;50.082;8.222;2022-08-19T10:34:41;25.70;80.40
1778;DHT22;886;50.082;8.222;2022-08-19T10:37:15;25.70;80.30
1778;DHT22;886;50.082;8.222;2022-08-19T10:40:01;25.70;80.60
1778;DHT22;886;50.082;8.222;2022-08-19T10:42:37;25.80;79.90
1778;DHT22;886;50.082;8.222;2022-08-19T10:45:07;25.80;79.10
1778;DHT22;886;50.082;8.222;2022-08-19T10:47:37;25.80;79.50
1778;DHT22;886;50.082;8.222;2022-08-19T10:50:08;25.90;79.50
1778;DHT22;886;50.082;8.222;2022-08-19T10:53:04;26.00;79.30
1778;DHT22;886;50.082;8.222;2022-08-19T10:55:44;26.00;79.70
1778;DHT22;886;50.082;8.222;2022-08-19T10:58:33;26.00;78.10
1778;DHT22;886;50.082;8.222;2022-08-19T11:01:03;26.10;76.90
1778;DHT22;886;50.082;8.222;2022-08-19T11:03:31;26.20;73.70
1778;DHT22;886;50.082;8.222;2022-08-19T11:06:00;26.30;74.00
1778;DHT22;886;50.082;8.222;2022-08-19T11:08:32;26.30;73.80
1778;DHT22;886;50.082;8.222;2022-08-19T11:11:02;26.40;72.80
1778;DHT22;886;50.082;8.222;2022-08-19T11:13:32;26.40;73.30
1778;DHT22;886;50.082;8.222;2022-08-19T11:16:05;26.40;73.20
1778;DHT22;886;50.082;8.222;2022-08-19T11:18:38;26.40;73.90
1778;DHT22;886;50.082;8.222;2022-08-19T11:21:10;26.40;74.50
1778;DHT22;886;50.082;8.222;2022-08-19T11:23:39;26.40;73.70
1778;DHT22;886;50.082;8.222;2022-08-19T11:26:07;26.50;73.70
1778;DHT22;886;50.082;8.222;2022-08-19T11:28:38;26.50;73.60
1778;DHT22;886;50.082;8.222;2022-08-19T11:31:11;26.50;73.30
1778;DHT22;886;50.082;8.222;2022-08-19T11:33:39;26.50;72.60
1778;DHT22;886;50.082;8.222;2022-08-19T11:36:07;26.50;71.60
1778;DHT22;886;50.082;8.222;2022-08-19T11:38:34;26.60;71.40
1778;DHT22;886;50.082;8.222;2022-08-19T11:41:04;26.60;71.10
1778;DHT22;886;50.082;8.222;2022-08-19T11:43:32;26.60;70.50
1778;DHT22;886;50.082;8.222;2022-08-19T11:46:05;26.70;71.80
1778;DHT22;886;50.082;8.222;2022-08-19T11:48:35;26.70;71.00
1778;DHT22;886;50.082;8.222;2022-08-19T11:51:05;26.70;70.20
1778;DHT22;886;50.082;8.222;2022-08-19T11:53:33;26.80;70.20
1778;DHT22;886;50.082;8.222;2022-08-19T11:56:02;26.80;70.10
1778;DHT22;886;50.082;8.222;2022-08-19T11:58:30;26.80;71.60
1778;DHT22;886;50.082;8.222;2022-08-19T12:01:01;26.90;71.90
1778;DHT22;886;50.082;8.222;2022-08-19T12:03:31;26.90;70.30
1778;DHT22;886;50.082;8.222;2022-08-19T12:06:03;26.90;70.30
1778;DHT22;886;50.082;8.222;2022-08-19T12:08:31;26.90;70.70
1778;DHT22;886;50.082;8.222;2022-08-19T12:10:58;27.00;71.00
1778;DHT22;886;50.082;8.222;2022-08-19T12:13:28;26.90;69.90
1778;DHT22;886;50.082;8.222;2022-08-19T12:15:57;26.90;70.40
1778;DHT22;886;50.082;8.222;2022-08-19T12:18:25;26.90;70.70
1778;DHT22;886;50.082;8.222;2022-08-19T12:20:54;27.00;72.00
1778;DHT22;886;50.082;8.222;2022-08-19T12:23:23;27.00;71.00
1778;DHT22;886;50.082;8.222;2022-08-19T12:25:53;27.00;70.80
1778;DHT22;886;50.082;8.222;2022-08-19T12:28:22;27.00;70.70
1778;DHT22;886;50.082;8.222;2022-08-19T12:30:50;27.10;70.10
1778;DHT22;886;50.082;8.222;2022-08-19T12:33:18;27.10;70.30
1778;DHT22;886;50.082;8.222;2022-08-19T12:35:50;27.20;70.20
1778;DHT22;886;50.082;8.222;2022-08-19T12:38:17;27.10;68.80
1778;DHT22;886;50.082;8.222;2022-08-19T12:40:47;27.10;69.00
1778;DHT22;886;50.082;8.222;2022-08-19T12:43:15;27.10;69.50
1778;DHT22;886;50.082;8.222;2022-08-19T12:45:42;27.10;69.50
1778;DHT22;886;50.082;8.222;2022-08-19T12:48:13;27.20;69.50
1778;DHT22;886;50.082;8.222;2022-08-19T12:51:05;27.30;69.80
1778;DHT22;886;50.082;8.222;2022-08-19T12:53:33;27.30;68.60
1778;DHT22;886;50.082;8.222;2022-08-19T12:56:06;27.40;67.40
1778;DHT22;886;50.082;8.222;2022-08-19T12:58:38;27.40;67.00
1778;DHT22;886;50.082;8.222;2022-08-19T13:01:15;27.40;67.50
1778;DHT22;886;50.082;8.222;2022-08-19T13:03:49;27.40;68.50
1778;DHT22;886;50.082;8.222;2022-08-19T13:06:16;27.50;68.90
1778;DHT22;886;50.082;8.222;2022-08-19T13:08:49;27.50;68.10
1778;DHT22;886;50.082;8.222;2022-08-19T13:11:19;27.40;68.50
1778;DHT22;886;50.082;8.222;2022-08-19T13:13:51;27.40;68.20
1778;DHT22;886;50.082;8.222;2022-08-19T13:16:19;27.30;68.20
1778;DHT22;886;50.082;8.222;2022-08-19T13:18:50;27.40;68.40
1778;DHT22;886;50.082;8.222;2022-08-19T13:21:26;27.40;68.60
1778;DHT22;886;50.082;8.222;2022-08-19T13:23:59;27.50;68.20
1778;DHT22;886;50.082;8.222;2022-08-19T13:26:28;27.50;68.60
1778;DHT22;886;50.082;8.222;2022-08-19T13:29:05;27.50;69.00
1778;DHT22;886;50.082;8.222;2022-08-19T13:31:52;27.40;69.00
1778;DHT22;886;50.082;8.222;2022-08-19T13:34:47;27.30;68.80
1778;DHT22;886;50.082;8.222;2022-08-19T13:37:18;27.30;68.90
1778;DHT22;886;50.082;8.222;2022-08-19T13:40:11;27.20;68.30
1778;DHT22;886;50.082;8.222;2022-08-19T13:42:49;27.30;68.00
1778;DHT22;886;50.082;8.222;2022-08-19T13:45:23;27.30;68.60
1778;DHT22;886;50.082;8.222;2022-08-19T13:47:53;27.50;67.90
1778;DHT22;886;50.082;8.222;2022-08-19T13:50:37;27.60;68.10
1778;DHT22;886;50.082;8.222;2022-08-19T13:53:17;27.50;68.60
1778;DHT22;886;50.082;8.222;2022-08-19T13:55:45;27.50;67.50
1778;DHT22;886;50.082;8.222;2022-08-19T13:58:14;27.50;66.10
1778;DHT22;886;50.082;8.222;2022-08-19T14:00:47;27.50;66.00
1778;DHT22;886;50.082;8.222;2022-08-19T14:03:18;27.60;65.30
1778;DHT22;886;50.082;8.222;2022-08-19T14:05:47;27.70;65.00
1778;DHT22;886;50.082;8.222;2022-08-19T14:08:21;27.70;66.90
1778;DHT22;886;50.082;8.222;2022-08-19T14:10:54;27.70;66.60
1778;DHT22;886;50.082;8.222;2022-08-19T14:13:23;27.70;66.10
1778;DHT22;886;50.082;8.222;2022-08-19T14:15:51;27.60;66.00
1778;DHT22;886;50.082;8.222;2022-08-19T14:18:18;27.60;66.20
1778;DHT22;886;50.082;8.222;2022-08-19T14:20:56;27.50;66.30
1778;DHT22;886;50.082;8.222;2022-08-19T14:23:30;27.50;65.50
1778;DHT22;886;50.082;8.222;2022-08-19T14:26:05;27.50;65.20
1778;DHT22;886;50.082;8.222;2022-08-19T14:28:37;27.50;65.50
1778;DHT22;886;50.082;8.222;2022-08-19T14:31:21;27.60;65.70
1778;DHT22;886;50.082;8.222;2022-08-19T14:33:54;27.60;64.50
1778;DHT22;886;50.082;8.222;2022-08-19T14:36:21;27.60;64.50
1778;DHT22;886;50.082;8.222;2022-08-19T14:38:49;27.60;64.30
1778;DHT22;886;50.082;8.222;2022-08-19T14:41:22;27.60;64.60
1778;DHT22;886;50.082;8.222;2022-08-19T14:43:51;27.60;64.90
1778;DHT22;886;50.082;8.222;2022-08-19T14:46:22;27.60;64.90
1778;DHT22;886;50.082;8.222;2022-08-19T14:48:54;27.70;64.90
1778;DHT22;886;50.082;8.222;2022-08-19T14:51:23;27.70;64.60
1778;DHT22;886;50.082;8.222;2022-08-19T14:53:53;27.70;64.40
1778;DHT22;886;50.082;8.222;2022-08-19T14:56:23;27.60;64.90
1778;DHT22;886;50.082;8.222;2022-08-19T14:58:53;27.60;65.00
1778;DHT22;886;50.082;8.222;2022-08-19T15:01:21;27.50;64.70
1778;DHT22;886;50.082;8.222;2022-08-19T15:03:50;27.60;64.80
1778;DHT22;886;50.082;8.222;2022-08-19T15:06:19;27.50;64.60
1778;DHT22;886;50.082;8.222;2022-08-19T15:08:49;27.60;63.40
1778;DHT22;886;50.082;8.222;2022-08-19T15:11:20;27.60;63.40
1778;DHT22;886;50.082;8.222;2022-08-19T15:13:49;27.70;63.50
1778;DHT22;886;50.082;8.222;2022-08-19T15:16:18;27.70;63.90
1778;DHT22;886;50.082;8.222;2022-08-19T15:18:48;27.70;64.20
1778;DHT22;886;50.082;8.222;2022-08-19T15:21:21;27.80;64.40
1778;DHT22;886;50.082;8.222;2022-08-19T15:23:54;27.80;64.60
1778;DHT22;886;50.082;8.222;2022-08-19T15:26:21;27.80;64.50
1778;DHT22;886;50.082;8.222;2022-08-19T15:28:49;27.80;64.20
1778;DHT22;886;50.082;8.222;2022-08-19T15:31:21;27.80;64.20
1778;DHT22;886;50.082;8.222;2022-08-19T15:33:55;27.80;64.20
1778;DHT22;886;50.082;8.222;2022-08-19T15:36:24;27.80;64.10
1778;DHT22;886;50.082;8.222;2022-08-19T15:38:52;27.80;64.50
1778;DHT22;886;50.082;8.222;2022-08-19T15:41:21;27.80;64.40
1778;DHT22;886;50.082;8.222;2022-08-19T15:43:52;27.90;64.90
1778;DHT22;886;50.082;8.222;2022-08-19T15:46:25;27.90;64.70
1778;DHT22;886;50.082;8.222;2022-08-19T15:48:55;27.80;64.30
1778;DHT22;886;50.082;8.222;2022-08-19T15:51:27;27.80;63.80
1778;DHT22;886;50.082;8.222;2022-08-19T15:53:56;27.80;64.10
1778;DHT22;886;50.082;8.222;2022-08-19T15:56:24;27.80;64.20
1778;DHT22;886;50.082;8.222;2022-08-19T15:58:53;27.80;63.80
1778;DHT22;886;50.082;8.222;2022-08-19T16:01:40;27.70;64.40
1778;DHT22;886;50.082;8.222;2022-08-19T16:04:27;27.70;63.80
1778;DHT22;886;50.082;8.222;2022-08-19T16:07:13;27.70;63.80
1778;DHT22;886;50.082;8.222;2022-08-19T16:09:48;27.80;64.00
1778;DHT22;886;50.082;8.222;2022-08-19T16:12:18;27.80;64.30
1778;DHT22;886;50.082;8.222;2022-08-19T16:14:45;27.80;64.10
1778;DHT22;886;50.082;8.222;2022-08-19T16:17:15;27.80;64.20
1778;DHT22;886;50.082;8.222;2022-08-19T16:19:42;27.70;64.30
1778;DHT22;886;50.082;8.222;2022-08-19T16:22:12;27.70;64.00
1778;DHT22;886;50.082;8.222;2022-08-19T16:24:40;27.70;64.00
1778;DHT22;886;50.082;8.222;2022-08-19T16:27:10;27.70;64.20
1778;DHT22;886;50.082;8.222;2022-08-19T16:29:37;27.70;63.90
1778;DHT22;886;50.082;8.222;2022-08-19T16:32:07;27.70;64.00
1778;DHT22;886;50.082;8.222;2022-08-19T16:34:38;27.80;64.10
1778;DHT22;886;50.082;8.222;2022-08-19T16:37:09;27.70;64.00
1778;DHT22;886;50.082;8.222;2022-08-19T16:39:37;27.70;63.80
1778;DHT22;886;50.082;8.222;2022-08-19T16:42:06;27.70;64.80
1778;DHT22;886;50.082;8.222;2022-08-19T16:44:41;27.70;64.10
1778;DHT22;886;50.082;8.222;2022-08-19T16:47:10;27.70;63.60